sensor_id;sensor_type;location;lat;lon;timestamp;temperature;humidity
41471;DHT22;27211;51.220;5.308;2023-05-10T20:42:00;14.00;99.90
41471;DHT22;27211;51.220;5.308;2023-05-10T20:44:28;14.10;99.90
41471;DHT22;27211;51.220;5.308;2023-05-10T20:46:54;14.40;99.90
41471;DHT22;27211;51.220;5.308;2023-05-10T20:49:24;14.60;99.90
41471;DHT22;27211;51.220;5.308;2023-05-10T20:51:53;14.30;99.90
41471;DHT22;27211;51.220;5.308;2023-05-10T20:54:25;14.60;99.90
41471;DHT22;27211;51.220;5.308;2023-05-10T20:56:53;14.90;99.90
41471;DHT22;27211;51.220;5.308;2023-05-10T20:59:20;15.00;99.90
41471;DHT22;27211;51.220;5.308;2023-05-10T21:01:46;14.80;99.90
41471;DHT22;27211;51.220;5.308;2023-05-10T21:04:14;14.80;99.90
41471;DHT22;27211;51.220;5.308;2023-05-10T21:06:42;14.70;99.90
41471;DHT22;27211;51.220;5.308;2023-05-10T21:09:09;14.40;99.90
41471;DHT22;27211;51.220;5.308;2023-05-10T21:11:39;14.00;99.90
41471;DHT22;27211;51.220;5.308;2023-05-10T21:14:06;13.80;99.90
41471;DHT22;27211;51.220;5.308;2023-05-10T21:16:32;13.90;99.90
41471;DHT22;27211;51.220;5.308;2023-05-10T21:19:01;14.00;99.90
41471;DHT22;27211;51.220;5.308;2023-05-10T21:21:29;13.90;99.90
41471;DHT22;27211;51.220;5.308;2023-05-10T21:23:57;14.20;99.90
41471;DHT22;27211;51.220;5.308;2023-05-10T21:26:25;14.00;99.90
41471;DHT22;27211;51.220;5.308;2023-05-10T21:29:26;13.80;99.90
41471;DHT22;27211;51.220;5.308;2023-05-10T21:31:52;13.70;99.90
41471;DHT22;27211;51.220;5.308;2023-05-10T21:34:19;13.80;99.90
41471;DHT22;27211;51.220;5.308;2023-05-10T21:36:47;13.70;99.90
41471;DHT22;27211;51.220;5.308;2023-05-10T21:39:20;13.90;99.90
41471;DHT22;27211;51.220;5.308;2023-05-10T21:41:56;14.20;99.90
41471;DHT22;27211;51.220;5.308;2023-05-10T21:44:23;14.30;99.90
41471;DHT22;27211;51.220;5.308;2023-05-10T21:46:50;14.00;99.90
41471;DHT22;27211;51.220;5.308;2023-05-10T21:49:18;14.10;99.90
41471;DHT22;27211;51.220;5.308;2023-05-10T21:51:46;14.20;99.90
41471;DHT22;27211;51.220;5.308;2023-05-10T21:54:14;14.60;99.90
41471;DHT22;27211;51.220;5.308;2023-05-10T21:56:43;14.80;99.90
41471;DHT22;27211;51.220;5.308;2023-05-10T21:59:09;14.70;99.90
41471;DHT22;27211;51.220;5.308;2023-05-10T22:01:36;14.80;99.90
41471;DHT22;27211;51.220;5.308;2023-05-10T22:04:03;14.80;99.90
41471;DHT22;27211;51.220;5.308;2023-05-10T22:06:30;15.00;99.90
41471;DHT22;27211;51.220;5.308;2023-05-10T22:08:56;15.20;99.90
41471;DHT22;27211;51.220;5.308;2023-05-10T22:11:22;15.20;99.90
41471;DHT22;27211;51.220;5.308;2023-05-10T22:13:49;15.00;99.90
41471;DHT22;27211;51.220;5.308;2023-05-10T22:16:15;15.10;99.90
41471;DHT22;27211;51.220;5.308;2023-05-10T22:18:43;14.70;99.90
41471;DHT22;27211;51.220;5.308;2023-05-10T22:21:10;14.60;99.90
41471;DHT22;27211;51.220;5.308;2023-05-10T22:23:38;14.40;99.90
41471;DHT22;27211;51.220;5.308;2023-05-10T22:26:05;14.20;99.90
41471;DHT22;27211;51.220;5.308;2023-05-10T22:28:34;14.10;99.90
41471;DHT22;27211;51.220;5.308;2023-05-10T22:31:01;14.00;99.90
41471;DHT22;27211;51.220;5.308;2023-05-10T22:33:29;14.00;99.90
41471;DHT22;27211;51.220;5.308;2023-05-10T22:35:57;14.00;99.90
41471;DHT22;27211;51.220;5.308;2023-05-10T22:38:26;14.10;99.90
41471;DHT22;27211;51.220;5.308;2023-05-10T22:40:54;14.00;99.90
41471;DHT22;27211;51.220;5.308;2023-05-10T22:43:22;13.90;99.90
41471;DHT22;27211;51.220;5.308;2023-05-10T22:45:48;13.90;99.90
41471;DHT22;27211;51.220;5.308;2023-05-10T22:48:16;14.00;99.90
41471;DHT22;27211;51.220;5.308;2023-05-10T22:50:45;14.10;99.90
41471;DHT22;27211;51.220;5.308;2023-05-10T22:53:12;14.00;99.90
41471;DHT22;27211;51.220;5.308;2023-05-10T22:55:40;14.00;99.90
41471;DHT22;27211;51.220;5.308;2023-05-10T22:58:08;14.40;99.90
41471;DHT22;27211;51.220;5.308;2023-05-10T23:00:40;14.60;99.90
41471;DHT22;27211;51.220;5.308;2023-05-10T23:03:08;14.70;99.90
41471;DHT22;27211;51.220;5.308;2023-05-10T23:05:36;14.80;99.90
41471;DHT22;27211;51.220;5.308;2023-05-10T23:08:03;14.60;99.90
41471;DHT22;27211;51.220;5.308;2023-05-10T23:10:31;14.50;99.90
41471;DHT22;27211;51.220;5.308;2023-05-10T23:12:59;14.70;99.90
41471;DHT22;27211;51.220;5.308;2023-05-10T23:18:27;15.30;99.90
41471;DHT22;27211;51.220;5.308;2023-05-10T23:20:55;15.10;99.90
41471;DHT22;27211;51.220;5.308;2023-05-10T23:23:31;15.30;99.90
41471;DHT22;27211;51.220;5.308;2023-05-10T23:25:59;14.70;99.90
41471;DHT22;27211;51.220;5.308;2023-05-10T23:28:26;14.50;99.90
41471;DHT22;27211;51.220;5.308;2023-05-10T23:30:57;14.50;99.90
41471;DHT22;27211;51.220;5.308;2023-05-10T23:33:31;14.40;99.90
41471;DHT22;27211;51.220;5.308;2023-05-10T23:36:00;14.50;99.90
41471;DHT22;27211;51.220;5.308;2023-05-10T23:38:28;14.70;99.90
41471;DHT22;27211;51.220;5.308;2023-05-10T23:40:56;14.50;99.90
41471;DHT22;27211;51.220;5.308;2023-05-10T23:43:24;14.70;99.90
41471;DHT22;27211;51.220;5.308;2023-05-10T23:45:54;14.80;99.90
41471;DHT22;27211;51.220;5.308;2023-05-10T23:48:21;14.70;99.90
41471;DHT22;27211;51.220;5.308;2023-05-10T23:50:49;14.80;99.90
41471;DHT22;27211;51.220;5.308;2023-05-10T23:53:17;14.70;99.90
41471;DHT22;27211;51.220;5.308;2023-05-10T23:55:44;14.80;99.90
41471;DHT22;27211;51.220;5.308;2023-05-10T23:58:11;15.00;99.90
